Weather at Avian Country Estates Airport

Public forecast

Using degrees Fahrenheit for public forecast. Weather courtesy of forecast.io.

Closest aviation weather report (METAR) to Avian Country Estates Airport

Closest report is Claremore Regional Airport, 12.0 nm (22.2 km) ESE. Retrieved 2021/01/19 17:35 UTC (15 minutes ago):

KGCM 191735Z AUTO 01005KT 10SM CLR 07/M03 A3047 RMK AO2

Closest aviation forecast (TAF) to Avian Country Estates Airport

Closest forecast is Tulsa International Airport, 13.9 nm (25.7 km) SW. Retrieved 2021/01/19 12:22 UTC (5 hours ago):

TAF KTUL 191120Z 1912/2012 34006KT P6SM BKN120 FM192300 VRB04KT P6SM SCT150